createdAt,value
2018-05-26T00:00:39.480Z,2.60
2018-05-26T00:01:39.355Z,2.70
2018-05-26T00:02:39.233Z,2.40
2018-05-26T00:03:39.107Z,2.80
2018-05-26T00:04:38.984Z,2.70
2018-05-26T00:05:38.860Z,2.60
2018-05-26T00:06:38.737Z,2.50
2018-05-26T00:07:38.613Z,2.70
2018-05-26T00:08:38.490Z,2.50
2018-05-26T00:09:38.367Z,2.40
2018-05-26T00:10:38.244Z,2.80
2018-05-26T00:11:38.119Z,2.90
2018-05-26T00:12:37.996Z,2.80
2018-05-26T00:13:37.870Z,2.50
2018-05-26T00:14:37.747Z,2.60
2018-05-26T00:15:37.624Z,2.60
2018-05-26T00:16:37.503Z,2.60
2018-05-26T00:17:37.382Z,2.80
2018-05-26T00:18:37.253Z,2.80
2018-05-26T00:19:37.131Z,2.50
2018-05-26T00:20:37.005Z,2.50
2018-05-26T00:21:36.880Z,2.90
2018-05-26T00:22:36.758Z,2.70
2018-05-26T00:23:36.633Z,2.80
2018-05-26T00:24:36.511Z,2.60
2018-05-26T00:25:36.437Z,2.80
2018-05-26T00:26:36.262Z,3.20
2018-05-26T00:27:36.137Z,3.00
2018-05-26T00:28:36.012Z,2.60
2018-05-26T00:29:35.889Z,2.70
2018-05-26T00:30:35.763Z,2.50
2018-05-26T00:31:35.640Z,2.50
2018-05-26T00:32:35.516Z,2.60
2018-05-26T00:33:35.394Z,2.30
2018-05-26T00:34:35.270Z,2.60
2018-05-26T00:35:35.144Z,2.70
2018-05-26T00:36:35.020Z,2.60
2018-05-26T00:37:34.896Z,2.60
2018-05-26T00:38:34.771Z,2.50
2018-05-26T00:39:34.650Z,2.50
2018-05-26T00:40:34.531Z,2.80
2018-05-26T00:41:34.399Z,2.60
2018-05-26T00:42:34.279Z,2.70
2018-05-26T00:43:34.188Z,2.80
2018-05-26T00:44:34.028Z,2.70
2018-05-26T00:45:33.906Z,2.70
2018-05-26T00:46:33.784Z,2.50
2018-05-26T00:47:33.656Z,2.50
2018-05-26T00:48:33.536Z,2.70
2018-05-26T00:49:33.409Z,3.00
2018-05-26T00:50:33.289Z,2.60
2018-05-26T00:51:33.163Z,2.70
2018-05-26T00:52:33.037Z,2.80
2018-05-26T00:53:32.917Z,2.60
2018-05-26T00:54:32.789Z,2.50
2018-05-26T00:55:32.664Z,2.90
2018-05-26T00:56:32.543Z,2.80
2018-05-26T00:57:32.419Z,2.60
2018-05-26T00:58:32.294Z,2.80
2018-05-26T00:59:32.168Z,2.60
2018-05-26T01:00:32.046Z,2.80
2018-05-26T01:01:31.921Z,2.70
2018-05-26T01:02:31.798Z,2.90
2018-05-26T01:03:31.677Z,2.30
2018-05-26T01:04:31.550Z,2.60
2018-05-26T01:05:31.425Z,2.80
2018-05-26T01:06:31.307Z,2.80
2018-05-26T01:07:31.178Z,2.70
2018-05-26T01:08:31.053Z,2.70
2018-05-26T01:09:30.930Z,2.60
2018-05-26T01:10:30.807Z,2.80
2018-05-26T01:11:30.683Z,2.70
2018-05-26T01:12:30.561Z,2.70
2018-05-26T01:13:30.448Z,2.80
2018-05-26T01:14:30.310Z,2.60
2018-05-26T01:15:30.188Z,2.80
2018-05-26T01:16:30.066Z,2.40
2018-05-26T01:17:29.940Z,2.40
2018-05-26T01:18:29.814Z,2.60
2018-05-26T01:19:29.692Z,2.40
2018-05-26T01:20:29.583Z,2.40
2018-05-26T01:21:29.447Z,2.50
2018-05-26T01:22:29.322Z,2.50
2018-05-26T01:23:29.193Z,2.50
2018-05-26T01:24:29.073Z,2.90
2018-05-26T01:25:28.948Z,2.50
2018-05-26T01:26:28.822Z,2.60
2018-05-26T01:27:28.698Z,2.70
2018-05-26T01:28:28.575Z,2.70
2018-05-26T01:29:28.452Z,2.60
2018-05-26T01:30:28.326Z,2.80
2018-05-26T01:31:28.204Z,2.60
2018-05-26T01:32:28.077Z,2.80
2018-05-26T01:33:27.956Z,2.80
2018-05-26T01:34:27.840Z,2.60
2018-05-26T01:35:27.706Z,2.70
2018-05-26T01:36:27.585Z,2.80
2018-05-26T01:37:27.461Z,2.40
2018-05-26T01:38:27.335Z,2.60
2018-05-26T01:39:27.209Z,2.70
2018-05-26T01:40:27.086Z,2.80
2018-05-26T01:41:26.960Z,2.70
2018-05-26T01:42:26.839Z,2.70
2018-05-26T01:43:26.715Z,2.60
2018-05-26T01:44:26.592Z,2.70
2018-05-26T01:45:26.467Z,2.60
2018-05-26T01:46:26.339Z,2.90
2018-05-26T01:47:26.219Z,2.50
2018-05-26T01:48:26.093Z,2.80
2018-05-26T01:49:25.966Z,2.60
2018-05-26T01:50:25.848Z,2.60
2018-05-26T01:51:25.720Z,2.30
2018-05-26T01:52:25.597Z,2.90
2018-05-26T01:53:25.472Z,2.70
2018-05-26T01:54:25.469Z,2.70
2018-05-26T01:55:25.222Z,2.90
2018-05-26T01:56:25.100Z,2.60
2018-05-26T01:57:24.974Z,2.50
2018-05-26T01:58:24.880Z,2.60
2018-05-26T01:59:24.729Z,2.40
2018-05-26T02:00:24.602Z,2.50
2018-05-26T02:01:24.480Z,2.60
2018-05-26T02:02:24.359Z,2.50
2018-05-26T02:03:24.233Z,2.60
2018-05-26T02:04:24.108Z,2.90
2018-05-26T02:05:23.983Z,3.00
2018-05-26T02:06:23.857Z,2.70
2018-05-26T02:07:23.736Z,2.70
2018-05-26T02:08:23.609Z,2.70
2018-05-26T02:09:23.482Z,2.40
2018-05-26T02:10:23.360Z,2.60
2018-05-26T02:11:23.236Z,2.50
2018-05-26T02:12:23.111Z,2.60
2018-05-26T02:13:22.988Z,2.70
2018-05-26T02:14:22.861Z,2.60
2018-05-26T02:15:22.745Z,2.40
2018-05-26T02:16:22.619Z,2.50
2018-05-26T02:17:22.492Z,2.40
2018-05-26T02:18:22.365Z,2.50
2018-05-26T02:19:22.243Z,2.70
2018-05-26T02:20:22.122Z,2.40
2018-05-26T02:21:21.996Z,2.50
2018-05-26T02:22:21.872Z,2.70
2018-05-26T02:23:21.745Z,2.60
2018-05-26T02:24:21.620Z,2.60
2018-05-26T02:25:21.497Z,2.40
2018-05-26T02:26:21.371Z,2.50
2018-05-26T02:27:21.248Z,2.70
2018-05-26T02:28:21.124Z,2.40
2018-05-26T02:29:21.002Z,2.50
2018-05-26T02:30:20.875Z,2.50
2018-05-26T02:31:20.751Z,2.40
2018-05-26T02:32:20.631Z,2.70
2018-05-26T02:33:20.507Z,2.80
2018-05-26T02:34:20.383Z,2.60
2018-05-26T02:35:20.257Z,2.50
2018-05-26T02:36:20.131Z,2.50
2018-05-26T02:37:20.010Z,2.70
2018-05-26T02:38:19.884Z,2.90
2018-05-26T02:39:19.761Z,2.80
2018-05-26T02:40:19.635Z,2.80
2018-05-26T02:41:19.507Z,2.40
2018-05-26T02:42:19.385Z,2.80
2018-05-26T02:43:19.260Z,2.40
2018-05-26T02:44:19.136Z,2.80
2018-05-26T02:45:19.011Z,2.70
2018-05-26T02:46:18.893Z,2.50
2018-05-26T02:47:18.767Z,2.50
2018-05-26T02:48:18.638Z,2.50
2018-05-26T02:49:18.515Z,2.70
2018-05-26T02:50:18.394Z,2.50
2018-05-26T02:51:18.267Z,2.80
2018-05-26T02:52:18.143Z,2.70
2018-05-26T02:53:18.017Z,2.50
2018-05-26T02:54:17.895Z,2.50
2018-05-26T02:55:17.771Z,2.70
2018-05-26T02:56:17.644Z,2.30
2018-05-26T02:57:17.523Z,2.50
2018-05-26T02:58:17.400Z,2.50
2018-05-26T02:59:17.273Z,2.60
2018-05-26T03:00:17.149Z,2.70
2018-05-26T03:01:17.022Z,2.40
2018-05-26T03:02:16.900Z,2.70
2018-05-26T03:03:16.775Z,2.50
2018-05-26T03:04:16.649Z,2.60
2018-05-26T03:05:16.526Z,2.80
2018-05-26T03:06:16.413Z,2.40
2018-05-26T03:07:16.279Z,2.60
2018-05-26T03:08:16.153Z,2.60
2018-05-26T03:09:16.029Z,2.60
2018-05-26T03:10:15.904Z,2.40
2018-05-26T03:11:15.777Z,2.40
2018-05-26T03:12:15.656Z,2.50
2018-05-26T03:13:15.531Z,2.60
2018-05-26T03:14:15.405Z,2.60
2018-05-26T03:15:15.284Z,2.70
2018-05-26T03:16:15.156Z,2.70
2018-05-26T03:17:15.034Z,2.80
2018-05-26T03:18:14.908Z,2.70
2018-05-26T03:19:14.783Z,2.70
2018-05-26T03:20:14.662Z,2.50
2018-05-26T03:21:14.534Z,2.60
2018-05-26T03:22:14.411Z,2.70
2018-05-26T03:23:14.287Z,2.40
2018-05-26T03:24:14.166Z,2.60
2018-05-26T03:25:14.036Z,2.70
2018-05-26T03:26:13.911Z,2.50
2018-05-26T03:27:13.791Z,2.80
2018-05-26T03:28:13.665Z,2.60
2018-05-26T03:29:13.539Z,2.50
2018-05-26T03:30:13.417Z,2.50
2018-05-26T03:31:13.290Z,2.40
2018-05-26T03:32:13.168Z,2.50
2018-05-26T03:33:13.042Z,2.40
2018-05-26T03:34:12.918Z,2.80
2018-05-26T03:35:12.792Z,2.70
2018-05-26T03:36:12.669Z,2.50
2018-05-26T03:37:12.548Z,2.60
2018-05-26T03:38:12.419Z,2.80
2018-05-26T03:39:12.294Z,2.90
2018-05-26T03:40:12.171Z,2.70
2018-05-26T03:41:12.050Z,2.60
2018-05-26T03:42:11.923Z,2.40
2018-05-26T03:43:11.797Z,2.60
2018-05-26T03:44:11.674Z,2.50
2018-05-26T03:45:11.548Z,2.50
2018-05-26T03:46:11.425Z,2.50
2018-05-26T03:47:11.300Z,2.90
2018-05-26T03:48:11.179Z,2.70
2018-05-26T03:49:11.053Z,2.70
2018-05-26T03:50:10.928Z,2.70
2018-05-26T03:51:10.805Z,2.40
2018-05-26T03:52:10.678Z,2.80
2018-05-26T03:53:10.554Z,2.70
2018-05-26T03:54:10.428Z,2.80
2018-05-26T03:55:10.307Z,2.70
2018-05-26T03:56:10.183Z,2.40
2018-05-26T03:57:10.067Z,2.70
2018-05-26T03:58:09.939Z,2.70
2018-05-26T03:59:09.811Z,2.50
2018-05-26T04:00:09.691Z,2.60
2018-05-26T04:01:09.560Z,2.80
2018-05-26T04:02:09.440Z,2.70
2018-05-26T04:03:09.313Z,2.50
2018-05-26T04:04:09.190Z,2.40
2018-05-26T04:05:09.065Z,2.80
2018-05-26T04:06:08.956Z,2.40
2018-05-26T04:07:08.820Z,2.60
2018-05-26T04:08:08.694Z,2.60
2018-05-26T04:09:08.571Z,2.50
2018-05-26T04:10:08.445Z,2.50
2018-05-26T04:11:08.324Z,2.40
2018-05-26T04:12:08.197Z,2.50
2018-05-26T04:13:08.079Z,2.60
2018-05-26T04:14:07.970Z,2.60
2018-05-26T04:15:07.828Z,2.70
2018-05-26T04:16:07.705Z,2.60
2018-05-26T04:17:07.582Z,2.60
2018-05-26T04:18:07.459Z,2.40
2018-05-26T04:19:07.334Z,2.50
2018-05-26T04:20:07.214Z,2.50
2018-05-26T04:21:07.083Z,2.40
2018-05-26T04:22:06.960Z,2.80
2018-05-26T04:23:06.839Z,2.40
2018-05-26T04:24:06.714Z,2.70
2018-05-26T04:25:06.590Z,2.60
2018-05-26T04:26:06.468Z,2.30
2018-05-26T04:27:06.344Z,2.40
2018-05-26T04:28:06.220Z,2.60
2018-05-26T04:29:06.098Z,2.40
2018-05-26T04:30:05.977Z,2.60
2018-05-26T04:31:05.850Z,2.40
2018-05-26T04:32:05.729Z,2.20
2018-05-26T04:33:05.605Z,2.40
2018-05-26T04:34:05.478Z,2.30
2018-05-26T04:35:05.356Z,2.60
2018-05-26T04:36:05.232Z,2.70
2018-05-26T04:37:05.107Z,2.60
2018-05-26T04:38:04.985Z,2.60
2018-05-26T04:39:04.863Z,2.50
2018-05-26T04:40:04.740Z,2.20
2018-05-26T04:41:04.614Z,2.30
2018-05-26T04:42:04.493Z,2.20
2018-05-26T04:43:04.373Z,2.30
2018-05-26T04:44:04.247Z,2.60
2018-05-26T04:45:04.123Z,2.80
2018-05-26T04:46:04.008Z,2.90
2018-05-26T04:47:03.878Z,2.40
2018-05-26T04:48:03.754Z,2.60
2018-05-26T04:49:03.630Z,2.60
2018-05-26T04:50:03.512Z,2.60
2018-05-26T04:51:03.385Z,2.40
2018-05-26T04:52:03.266Z,2.70
2018-05-26T04:53:03.167Z,2.50
2018-05-26T04:54:03.014Z,2.50
2018-05-26T04:55:02.895Z,2.30
2018-05-26T04:56:02.769Z,2.40
2018-05-26T04:57:02.649Z,2.30
2018-05-26T04:58:02.547Z,2.50
2018-05-26T04:59:02.401Z,2.30
2018-05-26T05:00:02.280Z,2.40
2018-05-26T05:01:02.156Z,2.80
2018-05-26T05:02:02.033Z,2.40
2018-05-26T05:03:01.916Z,2.60
2018-05-26T05:04:01.787Z,2.30
2018-05-26T05:05:01.677Z,2.70
2018-05-26T05:06:01.545Z,2.80
2018-05-26T05:07:01.420Z,2.50
2018-05-26T05:08:01.312Z,2.70
2018-05-26T05:09:01.179Z,2.60
2018-05-26T05:10:01.062Z,2.80
2018-05-26T05:11:00.941Z,2.50
2018-05-26T05:12:00.811Z,2.60
2018-05-26T05:13:00.682Z,2.70
2018-05-26T05:14:00.583Z,2.50
2018-05-26T05:15:00.436Z,2.60
2018-05-26T05:16:00.316Z,2.40
2018-05-26T05:17:00.194Z,2.40
2018-05-26T05:18:00.070Z,2.60
2018-05-26T05:18:59.945Z,2.50
2018-05-26T05:19:59.824Z,2.50
2018-05-26T05:20:59.701Z,2.40
2018-05-26T05:21:59.583Z,2.40
2018-05-26T05:22:59.499Z,2.50
2018-05-26T05:23:59.359Z,2.50
2018-05-26T05:24:59.209Z,2.70
2018-05-26T05:25:59.090Z,2.50
2018-05-26T05:26:58.965Z,2.80
2018-05-26T05:27:58.846Z,2.60
2018-05-26T05:28:58.721Z,2.80
2018-05-26T05:29:58.602Z,2.80
2018-05-26T05:30:58.478Z,2.50
2018-05-26T05:31:58.358Z,2.80
2018-05-26T05:32:58.239Z,2.40
2018-05-26T05:33:58.115Z,2.70
2018-05-26T05:34:58.005Z,2.60
2018-05-26T05:35:58.026Z,2.50
2018-05-26T05:36:57.746Z,2.70
2018-05-26T05:37:57.648Z,3.10
2018-05-26T05:38:57.515Z,2.50
2018-05-26T05:39:57.396Z,2.80
2018-05-26T05:40:57.260Z,2.70
2018-05-26T05:41:57.139Z,2.50
2018-05-26T05:42:57.013Z,2.50
2018-05-26T05:43:56.893Z,2.60
2018-05-26T05:44:56.790Z,2.80
2018-05-26T05:45:56.650Z,2.90
2018-05-26T05:46:56.527Z,2.80
2018-05-26T05:47:56.404Z,2.90
2018-05-26T05:48:56.281Z,2.60
2018-05-26T05:49:56.160Z,2.80
2018-05-26T05:50:56.042Z,2.80
2018-05-26T05:51:55.916Z,2.50
2018-05-26T05:52:55.796Z,2.60
2018-05-26T05:53:55.675Z,2.30
2018-05-26T05:54:55.551Z,2.50
2018-05-26T05:55:55.449Z,2.50
2018-05-26T05:56:55.307Z,2.40
2018-05-26T05:57:55.196Z,2.30
2018-05-26T05:58:55.097Z,2.60
2018-05-26T05:59:54.945Z,2.60
2018-05-26T06:00:54.822Z,2.60
2018-05-26T06:01:54.709Z,2.30
2018-05-26T06:02:54.599Z,2.30
2018-05-26T06:03:54.460Z,2.20
2018-05-26T06:04:54.337Z,2.50
2018-05-26T06:05:54.226Z,2.30
2018-05-26T06:06:54.094Z,2.40
2018-05-26T06:07:53.976Z,2.20
2018-05-26T06:08:53.853Z,2.10
2018-05-26T06:09:53.730Z,2.20
2018-05-26T06:10:53.611Z,2.30
2018-05-26T06:11:53.488Z,2.40
2018-05-26T06:12:53.365Z,2.20
2018-05-26T06:13:53.246Z,2.30
2018-05-26T06:14:53.151Z,2.30
2018-05-26T06:15:53.003Z,2.20
2018-05-26T06:16:52.884Z,2.00
2018-05-26T06:17:52.764Z,2.20
2018-05-26T06:18:52.643Z,2.10
2018-05-26T06:19:52.520Z,2.20
2018-05-26T06:20:52.399Z,2.20
2018-05-26T06:21:52.276Z,2.10
2018-05-26T06:22:52.156Z,2.30
2018-05-26T06:23:52.035Z,2.20
2018-05-26T06:24:51.914Z,2.20
2018-05-26T06:25:51.802Z,2.10
2018-05-26T06:26:51.673Z,2.10
2018-05-26T06:27:51.583Z,2.20
2018-05-26T06:28:51.429Z,2.20
2018-05-26T06:29:51.311Z,2.30
2018-05-26T06:30:51.190Z,2.00
2018-05-26T06:31:51.075Z,2.40
2018-05-26T06:32:50.945Z,2.10
2018-05-26T06:33:50.828Z,2.00
2018-05-26T06:34:50.705Z,2.30
2018-05-26T06:35:50.624Z,2.20
2018-05-26T06:36:50.471Z,2.20
2018-05-26T06:37:50.346Z,2.10
2018-05-26T06:38:50.232Z,2.20
2018-05-26T06:39:50.104Z,2.20
2018-05-26T06:40:49.983Z,2.30
2018-05-26T06:41:49.908Z,2.10
2018-05-26T06:42:49.741Z,2.30
2018-05-26T06:43:49.623Z,2.20
2018-05-26T06:44:49.510Z,2.20
2018-05-26T06:45:49.387Z,2.20
2018-05-26T06:46:49.259Z,2.00
2018-05-26T06:47:49.140Z,2.20
2018-05-26T06:48:49.019Z,2.20
2018-05-26T06:49:50.371Z,2.20
2018-05-26T06:50:49.018Z,2.30
2018-05-26T06:51:48.659Z,2.30
2018-05-26T06:52:48.637Z,2.30
2018-05-26T06:53:49.615Z,2.20
2018-05-26T06:54:48.300Z,2.10
2018-05-26T06:55:48.455Z,2.20
2018-05-26T06:56:48.058Z,2.30
2018-05-26T06:57:47.944Z,2.50
2018-05-26T06:58:47.884Z,2.20
2018-05-26T06:59:47.800Z,2.20
2018-05-26T07:00:47.597Z,2.30
2018-05-26T07:01:47.461Z,2.30
2018-05-26T07:02:47.386Z,2.30
2018-05-26T07:03:47.221Z,2.20
2018-05-26T07:04:47.100Z,2.30
2018-05-26T07:05:46.978Z,2.20
2018-05-26T07:06:46.860Z,2.10
2018-05-26T07:07:46.740Z,2.30
2018-05-26T07:08:46.619Z,2.40
2018-05-26T07:09:46.501Z,2.10
2018-05-26T07:10:46.388Z,2.30
2018-05-26T07:11:46.261Z,2.40
2018-05-26T07:12:46.143Z,2.30
2018-05-26T07:13:46.021Z,2.10
2018-05-26T07:14:45.903Z,2.00
2018-05-26T07:15:45.783Z,2.10
2018-05-26T07:16:45.663Z,2.00
2018-05-26T07:17:45.551Z,2.20
2018-05-26T07:18:45.427Z,2.50
2018-05-26T07:19:45.305Z,2.30
2018-05-26T07:20:45.184Z,2.20
2018-05-26T07:21:45.066Z,2.00
2018-05-26T07:22:44.948Z,2.10
2018-05-26T07:23:45.015Z,2.20
2018-05-26T07:24:44.763Z,2.00
2018-05-26T07:25:44.591Z,2.20
2018-05-26T07:26:44.474Z,2.40
2018-05-26T07:27:44.364Z,2.20
2018-05-26T07:28:44.232Z,2.20
2018-05-26T07:29:44.111Z,2.40
2018-05-26T07:30:43.993Z,2.30
2018-05-26T07:31:43.878Z,2.20
2018-05-26T07:32:43.753Z,2.30
2018-05-26T07:33:43.638Z,2.50
2018-05-26T07:34:43.516Z,2.40
2018-05-26T07:35:43.399Z,2.10
2018-05-26T07:36:43.300Z,2.50
2018-05-26T07:37:43.169Z,2.20
2018-05-26T07:38:43.065Z,2.30
2018-05-26T07:39:42.921Z,2.20
2018-05-26T07:40:42.805Z,2.30
2018-05-26T07:41:42.684Z,2.50
2018-05-26T07:42:42.575Z,2.50
2018-05-26T07:43:42.446Z,2.30
2018-05-26T07:44:42.327Z,2.20
2018-05-26T07:45:42.210Z,2.60
2018-05-26T07:46:42.096Z,2.50
2018-05-26T07:47:41.971Z,2.60
2018-05-26T07:48:41.851Z,2.60
2018-05-26T07:49:41.791Z,2.40
2018-05-26T07:50:41.617Z,2.50
2018-05-26T07:51:41.498Z,2.10
2018-05-26T07:52:41.378Z,2.70
2018-05-26T07:53:41.317Z,2.30
2018-05-26T07:54:41.146Z,2.30
2018-05-26T07:55:41.057Z,2.80
2018-05-26T07:56:40.910Z,2.30
2018-05-26T07:57:40.787Z,2.60
2018-05-26T07:58:40.791Z,2.60
2018-05-26T07:59:40.558Z,2.50
2018-05-26T08:00:40.480Z,2.30
2018-05-26T08:01:40.319Z,2.40
2018-05-26T08:02:40.195Z,2.50
2018-05-26T08:03:40.078Z,2.50
2018-05-26T08:04:39.962Z,2.40
2018-05-26T08:05:39.839Z,2.80
2018-05-26T08:06:39.722Z,2.20
2018-05-26T08:07:39.611Z,2.40
2018-05-26T08:08:39.499Z,2.80
2018-05-26T08:09:39.365Z,2.40
2018-05-26T08:10:39.248Z,2.80
2018-05-26T08:11:39.252Z,2.50
2018-05-26T08:12:39.039Z,2.40
2018-05-26T08:13:38.896Z,2.50
2018-05-26T08:14:38.772Z,2.20
2018-05-26T08:15:38.668Z,2.80
2018-05-26T08:16:38.540Z,2.40
2018-05-26T08:17:38.439Z,2.40
2018-05-26T08:18:38.303Z,2.50
2018-05-26T08:19:38.183Z,2.30
2018-05-26T08:20:38.065Z,2.60
2018-05-26T08:21:37.948Z,2.20
2018-05-26T08:22:37.829Z,2.40
2018-05-26T08:23:37.712Z,2.50
2018-05-26T08:24:37.697Z,2.50
2018-05-26T08:25:37.475Z,2.50
2018-05-26T08:26:37.362Z,2.70
2018-05-26T08:27:37.245Z,2.40
2018-05-26T08:28:37.120Z,2.40
2018-05-26T08:29:37.000Z,2.30
2018-05-26T08:30:36.891Z,2.40
2018-05-26T08:31:36.763Z,2.20
2018-05-26T08:32:36.647Z,2.30
2018-05-26T08:33:36.528Z,2.30
2018-05-26T08:34:36.409Z,2.40
2018-05-26T08:35:36.295Z,2.50
2018-05-26T08:36:36.260Z,2.40
2018-05-26T08:37:36.061Z,2.10
2018-05-26T08:38:35.938Z,2.20
2018-05-26T08:39:35.883Z,1.90
2018-05-26T08:40:35.746Z,1.90
2018-05-26T08:41:35.586Z,2.00
2018-05-26T08:42:35.474Z,1.80
2018-05-26T08:43:35.355Z,2.30
2018-05-26T08:44:35.270Z,2.20
2018-05-26T08:45:35.127Z,2.20
2018-05-26T08:46:35.000Z,2.10
2018-05-26T08:47:34.886Z,2.10
2018-05-26T08:48:34.851Z,2.20
2018-05-26T08:49:34.740Z,2.10
2018-05-26T08:50:34.600Z,2.10
2018-05-26T08:51:34.421Z,2.10
2018-05-26T08:52:34.295Z,2.00
2018-05-26T08:53:34.178Z,2.10
2018-05-26T08:54:34.064Z,2.10
2018-05-26T08:55:33.950Z,2.20
2018-05-26T08:56:33.828Z,2.40
2018-05-26T08:57:33.715Z,2.30
2018-05-26T08:58:33.594Z,2.20
2018-05-26T08:59:33.478Z,2.20
2018-05-26T09:00:33.362Z,2.00
2018-05-26T09:01:33.241Z,2.20
2018-05-26T09:02:33.126Z,2.40
2018-05-26T09:03:33.013Z,2.20
2018-05-26T09:04:32.889Z,2.10
2018-05-26T09:05:32.775Z,2.20
2018-05-26T09:06:32.656Z,2.20
2018-05-26T09:07:32.550Z,2.20
2018-05-26T09:08:32.421Z,2.20
2018-05-26T09:09:32.315Z,2.20
2018-05-26T09:10:32.189Z,2.20
2018-05-26T09:11:32.069Z,2.10
2018-05-26T09:12:31.965Z,2.30
2018-05-26T09:13:31.844Z,2.30
2018-05-26T09:14:31.816Z,2.00
2018-05-26T09:15:31.748Z,2.30
2018-05-26T09:16:31.516Z,2.50
2018-05-26T09:17:31.368Z,2.10
2018-05-26T09:18:31.295Z,2.20
2018-05-26T09:19:31.146Z,2.10
2018-05-26T09:20:31.016Z,1.90
2018-05-26T09:21:30.902Z,2.00
2018-05-26T09:22:30.785Z,2.10
2018-05-26T09:23:30.729Z,2.20
2018-05-26T09:24:30.625Z,2.20
2018-05-26T09:25:30.490Z,2.20
2018-05-26T09:26:30.320Z,2.10
2018-05-26T09:27:30.202Z,2.20
2018-05-26T09:28:30.085Z,2.20
2018-05-26T09:29:29.971Z,2.20
2018-05-26T09:30:29.849Z,2.10
2018-05-26T09:31:29.737Z,2.30
2018-05-26T09:32:29.783Z,2.20
2018-05-26T09:33:29.503Z,2.10
2018-05-26T09:34:29.385Z,2.10
2018-05-26T09:35:29.270Z,2.20
2018-05-26T09:36:29.151Z,2.10
2018-05-26T09:37:29.036Z,2.20
2018-05-26T09:38:28.922Z,2.00
2018-05-26T09:39:28.804Z,2.30
2018-05-26T09:40:28.685Z,2.00
2018-05-26T09:41:28.576Z,2.20
2018-05-26T09:42:28.457Z,2.40
2018-05-26T09:43:28.335Z,2.30
2018-05-26T09:44:28.218Z,2.40
2018-05-26T09:45:28.101Z,2.20
2018-05-26T09:46:27.992Z,2.20
2018-05-26T09:47:27.874Z,2.20
2018-05-26T09:48:27.756Z,2.40
2018-05-26T09:49:27.639Z,2.00
2018-05-26T09:50:27.518Z,2.10
2018-05-26T09:51:27.406Z,2.10
2018-05-26T09:52:27.285Z,2.30
2018-05-26T09:53:27.187Z,2.10
2018-05-26T09:54:27.055Z,2.20
2018-05-26T09:55:26.937Z,2.10
2018-05-26T09:56:26.861Z,2.40
2018-05-26T09:57:26.707Z,2.30
2018-05-26T09:58:26.641Z,2.20
2018-05-26T09:59:26.480Z,2.50
2018-05-26T10:00:26.386Z,2.30
2018-05-26T10:01:26.242Z,2.30
2018-05-26T10:02:26.142Z,2.40
2018-05-26T10:03:26.045Z,2.40
2018-05-26T10:04:25.897Z,2.50
2018-05-26T10:05:25.782Z,2.40
2018-05-26T10:06:25.666Z,2.40
2018-05-26T10:07:25.552Z,2.40
2018-05-26T10:08:25.436Z,2.50
2018-05-26T10:09:25.365Z,2.50
2018-05-26T10:10:25.339Z,2.60
2018-05-26T10:11:25.115Z,2.40
2018-05-26T10:12:24.975Z,2.70
2018-05-26T10:13:24.908Z,2.60
2018-05-26T10:14:24.741Z,2.50
2018-05-26T10:15:24.627Z,2.70
2018-05-26T10:16:24.513Z,2.70
2018-05-26T10:17:24.396Z,2.70
2018-05-26T10:18:24.282Z,2.60
2018-05-26T10:19:24.166Z,2.40
2018-05-26T10:20:24.050Z,2.50
2018-05-26T10:21:23.938Z,2.70
2018-05-26T10:22:23.827Z,2.60
2018-05-26T10:23:23.707Z,3.00
2018-05-26T10:24:23.643Z,2.80
2018-05-26T10:25:23.525Z,2.50
2018-05-26T10:26:23.378Z,2.80
2018-05-26T10:27:23.363Z,2.70
2018-05-26T10:28:23.135Z,2.60
2018-05-26T10:29:23.022Z,2.70
2018-05-26T10:30:22.907Z,2.60
2018-05-26T10:31:22.796Z,2.90
2018-05-26T10:32:22.680Z,2.90
2018-05-26T10:33:22.566Z,2.90
2018-05-26T10:34:22.535Z,2.80
2018-05-26T10:35:22.339Z,2.90
2018-05-26T10:36:22.225Z,3.10
2018-05-26T10:37:22.108Z,3.10
2018-05-26T10:38:21.997Z,2.90
2018-05-26T10:39:21.884Z,3.20
2018-05-26T10:40:21.768Z,3.30
2018-05-26T10:41:21.686Z,3.40
2018-05-26T10:42:21.593Z,3.30
2018-05-26T10:43:21.428Z,3.50
2018-05-26T10:44:21.324Z,3.20
2018-05-26T10:45:21.198Z,3.10
2018-05-26T10:46:21.140Z,3.80
2018-05-26T10:47:20.974Z,3.20
2018-05-26T10:48:20.860Z,3.40
2018-05-26T10:49:20.755Z,3.30
2018-05-26T10:50:20.731Z,3.10
2018-05-26T10:51:20.518Z,3.40
2018-05-26T10:52:20.404Z,3.00
2018-05-26T10:53:20.290Z,2.90
2018-05-26T10:54:20.192Z,3.10
2018-05-26T10:55:20.064Z,3.30
2018-05-26T10:56:19.952Z,3.30
2018-05-26T10:57:19.840Z,3.10
2018-05-26T10:58:19.726Z,3.20
2018-05-26T10:59:19.615Z,3.00
2018-05-26T11:00:19.515Z,3.10
2018-05-26T11:01:19.390Z,3.10
2018-05-26T11:02:19.277Z,2.70
2018-05-26T11:03:19.161Z,2.40
2018-05-26T11:04:19.054Z,2.80
2018-05-26T11:05:19.104Z,2.90
2018-05-26T11:06:18.824Z,2.80
2018-05-26T11:07:18.712Z,2.90
2018-05-26T11:08:18.620Z,3.30
2018-05-26T11:09:18.497Z,3.00
2018-05-26T11:10:18.376Z,3.40
2018-05-26T11:11:18.272Z,3.00
2018-05-26T11:12:18.150Z,3.30
2018-05-26T11:13:18.045Z,3.00
2018-05-26T11:14:17.929Z,3.20
2018-05-26T11:15:17.816Z,2.70
2018-05-26T11:16:17.701Z,2.80
2018-05-26T11:17:17.593Z,2.90
2018-05-26T11:18:17.484Z,3.00
2018-05-26T11:19:17.369Z,3.00
2018-05-26T11:20:17.315Z,3.30
2018-05-26T11:21:17.143Z,3.10
2018-05-26T11:22:17.081Z,2.90
2018-05-26T11:23:16.933Z,2.90
2018-05-26T11:24:16.866Z,3.20
2018-05-26T11:25:16.699Z,3.10
2018-05-26T11:26:16.643Z,3.20
2018-05-26T11:27:16.475Z,3.00
2018-05-26T11:28:16.368Z,3.00
2018-05-26T11:29:16.252Z,2.80
2018-05-26T11:30:16.139Z,2.70
2018-05-26T11:31:16.142Z,2.90
2018-05-26T11:32:16.017Z,3.40
2018-05-26T11:33:15.806Z,2.90
2018-05-26T11:34:15.693Z,3.30
2018-05-26T11:35:15.582Z,3.10
2018-05-26T11:36:15.470Z,2.90
2018-05-26T11:37:15.359Z,3.20
2018-05-26T11:38:15.248Z,3.30
2018-05-26T11:39:15.137Z,3.40
2018-05-26T11:40:15.024Z,2.90
2018-05-26T11:41:14.911Z,3.00
2018-05-26T11:42:14.801Z,3.30
2018-05-26T11:43:14.690Z,3.10
2018-05-26T11:44:14.629Z,3.80
2018-05-26T11:45:14.464Z,3.40
2018-05-26T11:46:14.386Z,3.60
2018-05-26T11:47:14.241Z,3.40
2018-05-26T11:48:14.127Z,3.40
2018-05-26T11:49:14.018Z,3.40
2018-05-26T11:50:13.905Z,3.20
2018-05-26T11:51:13.791Z,3.60
2018-05-26T11:52:13.677Z,3.10
2018-05-26T11:53:13.568Z,3.80
2018-05-26T11:54:13.453Z,3.30
2018-05-26T11:55:13.340Z,3.50
2018-05-26T11:56:13.235Z,3.10
2018-05-26T11:57:13.114Z,3.00
2018-05-26T11:58:13.004Z,2.90
2018-05-26T11:59:12.891Z,3.10
2018-05-26T12:00:12.777Z,3.30
2018-05-26T12:01:12.697Z,3.80
2018-05-26T12:02:12.552Z,3.20
2018-05-26T12:03:12.437Z,3.10
2018-05-26T12:04:12.324Z,2.90
2018-05-26T12:05:12.242Z,3.50
2018-05-26T12:06:12.100Z,3.20
2018-05-26T12:07:11.984Z,3.20
2018-05-26T12:08:11.871Z,3.40
2018-05-26T12:09:11.758Z,3.50
2018-05-26T12:10:11.649Z,3.20
2018-05-26T12:11:11.564Z,3.30
2018-05-26T12:12:11.415Z,3.20
2018-05-26T12:13:11.303Z,3.50
2018-05-26T12:14:11.188Z,3.30
2018-05-26T12:15:11.077Z,3.70
2018-05-26T12:16:10.961Z,3.40
2018-05-26T12:17:10.848Z,3.50
2018-05-26T12:18:10.735Z,3.40
2018-05-26T12:19:10.619Z,3.70
2018-05-26T12:20:10.507Z,3.60
2018-05-26T12:21:10.392Z,3.40
2018-05-26T12:22:10.276Z,3.20
2018-05-26T12:23:10.165Z,3.60
2018-05-26T12:24:10.053Z,3.40
2018-05-26T12:25:09.939Z,3.20
2018-05-26T12:26:09.827Z,3.90
2018-05-26T12:27:09.710Z,3.40
2018-05-26T12:28:09.594Z,3.90
2018-05-26T12:29:09.484Z,3.70
2018-05-26T12:30:09.367Z,3.30
2018-05-26T12:31:09.254Z,3.50
2018-05-26T12:32:09.136Z,3.30
2018-05-26T12:33:09.026Z,3.20
2018-05-26T12:34:08.913Z,3.20
2018-05-26T12:35:08.799Z,3.50
2018-05-26T12:36:08.684Z,3.40
2018-05-26T12:37:08.570Z,3.30
2018-05-26T12:38:08.455Z,3.10
2018-05-26T12:39:08.343Z,3.50
2018-05-26T12:40:08.272Z,3.60
2018-05-26T12:41:08.114Z,3.00
2018-05-26T12:42:08.001Z,3.20
2018-05-26T12:43:07.892Z,3.10
2018-05-26T12:44:07.773Z,3.40
2018-05-26T12:45:07.659Z,3.20
2018-05-26T12:46:07.548Z,3.30
2018-05-26T12:47:07.436Z,3.10
2018-05-26T12:48:07.317Z,3.20
2018-05-26T12:49:07.207Z,3.40
2018-05-26T12:50:07.091Z,3.20
2018-05-26T12:51:06.980Z,2.90
2018-05-26T12:52:06.917Z,3.50
2018-05-26T12:53:06.759Z,3.30
2018-05-26T12:54:06.642Z,3.10
2018-05-26T12:55:06.525Z,3.40
2018-05-26T12:56:06.413Z,3.10
2018-05-26T12:57:06.305Z,3.50
2018-05-26T12:58:06.189Z,3.70
2018-05-26T12:59:06.077Z,3.20
2018-05-26T13:00:05.963Z,3.30
2018-05-26T13:01:05.854Z,3.80
2018-05-26T13:02:05.739Z,3.80
2018-05-26T13:03:05.631Z,3.60
2018-05-26T13:04:05.516Z,3.70
2018-05-26T13:05:05.405Z,3.50
2018-05-26T13:06:05.348Z,3.70
2018-05-26T13:07:05.183Z,3.50
2018-05-26T13:08:05.076Z,3.30
2018-05-26T13:09:04.964Z,3.20
2018-05-26T13:10:04.854Z,3.70
2018-05-26T13:11:04.743Z,3.60
2018-05-26T13:12:04.634Z,3.80
2018-05-26T13:13:04.523Z,3.90
2018-05-26T13:14:04.414Z,3.30
2018-05-26T13:15:04.303Z,3.60
2018-05-26T13:16:04.195Z,3.70
2018-05-26T13:17:04.084Z,3.60